createdAt,value
2023-01-11T00:01:10.116Z,7.43
2023-01-11T00:03:38.224Z,8.43
2023-01-11T00:06:08.058Z,5.82
2023-01-11T00:08:36.337Z,8.63
2023-01-11T00:11:04.728Z,6.85
2023-01-11T00:13:34.723Z,7.53
2023-01-11T00:16:07.343Z,7.68
2023-01-11T00:18:35.964Z,6.13
2023-01-11T00:21:05.574Z,11.13
2023-01-11T00:23:33.933Z,5.68
2023-01-11T00:26:03.781Z,7.00
2023-01-11T00:28:33.978Z,7.65
2023-01-11T00:31:02.339Z,3.78
2023-01-11T00:33:30.557Z,4.85
2023-01-11T00:35:58.762Z,9.15
2023-01-11T00:38:47.046Z,7.95
2023-01-11T00:41:34.205Z,5.57
2023-01-11T00:44:21.593Z,9.88
2023-01-11T00:47:11.466Z,6.72
2023-01-11T00:49:39.616Z,5.35
2023-01-11T00:52:09.407Z,6.43
2023-01-11T00:54:38.549Z,9.85
2023-01-11T00:57:07.613Z,6.30
2023-01-11T00:59:39.385Z,6.20
2023-01-11T01:02:08.399Z,5.93
2023-01-11T01:04:36.751Z,4.22
2023-01-11T01:07:05.532Z,7.07
2023-01-11T01:09:34.160Z,7.43
2023-01-11T01:12:03.067Z,5.07
2023-01-11T01:14:30.967Z,6.10
2023-01-11T01:17:02.790Z,4.60
2023-01-11T01:19:32.239Z,8.52
2023-01-11T01:22:01.091Z,9.80
2023-01-11T01:24:30.809Z,6.97
2023-01-11T01:26:59.777Z,9.63
2023-01-11T01:29:27.892Z,9.18
2023-01-11T01:31:55.967Z,9.43
2023-01-11T01:34:25.504Z,8.10
2023-01-11T01:36:53.571Z,8.07
2023-01-11T01:39:21.690Z,8.23
2023-01-11T01:41:49.838Z,4.35
2023-01-11T01:44:59.759Z,9.65
2023-01-11T01:47:33.587Z,5.68
2023-01-11T01:50:08.327Z,9.32
2023-01-11T01:52:37.573Z,8.52
2023-01-11T01:55:10.887Z,9.68
2023-01-11T01:57:41.759Z,5.13
2023-01-11T02:03:53.956Z,6.45
2023-01-11T02:06:24.706Z,8.43
2023-01-11T02:08:58.202Z,11.07
2023-01-11T02:11:31.765Z,6.53
2023-01-11T02:14:02.299Z,4.85
2023-01-11T02:16:30.657Z,8.23
2023-01-11T02:18:59.603Z,6.22
2023-01-11T02:21:38.076Z,6.60
2023-01-11T02:24:26.834Z,6.25
2023-01-11T02:27:17.489Z,6.18
2023-01-11T02:29:58.122Z,7.40
2023-01-11T02:32:35.431Z,5.97
2023-01-11T02:35:15.234Z,5.43
2023-01-11T02:37:52.499Z,7.22
2023-01-11T02:40:28.790Z,4.10
2023-01-11T02:43:21.196Z,4.25
2023-01-11T02:45:56.281Z,4.47
2023-01-11T02:48:32.827Z,6.60
2023-01-11T02:51:07.077Z,4.80
2023-01-11T02:53:40.912Z,6.45
2023-01-11T02:56:13.163Z,6.32
2023-01-11T02:58:44.722Z,7.10
2023-01-11T03:01:14.469Z,7.53
2023-01-11T03:03:42.543Z,4.65
2023-01-11T03:06:16.535Z,5.07
2023-01-11T03:09:00.385Z,5.30
2023-01-11T03:11:53.713Z,8.27
2023-01-11T03:14:28.895Z,3.63
2023-01-11T03:17:12.055Z,5.82
2023-01-11T03:19:48.037Z,6.72
2023-01-11T03:24:53.629Z,8.15
2023-01-11T03:27:32.586Z,5.45
2023-01-11T03:30:07.871Z,5.28
2023-01-11T03:32:44.622Z,5.97
2023-01-11T03:35:19.700Z,6.13
2023-01-11T03:37:55.861Z,7.30
2023-01-11T03:40:29.565Z,8.57
2023-01-11T03:43:12.963Z,6.80
2023-01-11T03:45:45.765Z,8.43
2023-01-11T03:48:18.260Z,8.50
2023-01-11T03:50:48.718Z,7.95
2023-01-11T03:53:19.314Z,8.70
2023-01-11T03:55:50.846Z,4.57
2023-01-11T03:58:19.556Z,5.32
2023-01-11T04:00:52.218Z,9.30
2023-01-11T04:03:21.822Z,6.82
2023-01-11T04:05:53.760Z,8.60
2023-01-11T04:08:21.817Z,12.45
2023-01-11T04:10:49.920Z,8.07
2023-01-11T04:13:18.041Z,10.23
2023-01-11T04:15:46.231Z,9.88
2023-01-11T04:18:14.423Z,10.68
2023-01-11T04:20:43.905Z,10.20
2023-01-11T04:23:11.968Z,9.60
2023-01-11T04:25:40.177Z,8.13
2023-01-11T04:28:08.263Z,7.63
2023-01-11T04:30:37.306Z,8.93
2023-01-11T04:33:05.423Z,10.27
2023-01-11T04:35:33.523Z,10.45
2023-01-11T04:38:02.959Z,9.30
2023-01-11T04:40:31.046Z,7.60
2023-01-11T04:43:02.231Z,6.72
2023-01-11T04:45:30.449Z,4.93
2023-01-11T04:47:59.218Z,9.00
2023-01-11T04:50:28.979Z,7.85
2023-01-11T04:53:00.882Z,12.90
2023-01-11T04:55:30.383Z,8.80
2023-01-11T04:57:58.510Z,7.57
2023-01-11T05:00:26.555Z,8.85
2023-01-11T05:02:54.753Z,10.13
2023-01-11T05:05:22.847Z,3.75
2023-01-11T05:07:50.986Z,12.38
2023-01-11T05:10:21.016Z,9.00
2023-01-11T05:12:52.286Z,5.25
2023-01-11T05:15:20.395Z,8.65
2023-01-11T05:17:48.552Z,11.77
2023-01-11T05:20:17.050Z,8.93
2023-01-11T05:22:45.160Z,5.40
2023-01-11T05:25:13.327Z,7.93
2023-01-11T05:27:41.412Z,14.18
2023-01-11T05:30:12.697Z,5.88
2023-01-11T05:32:40.846Z,6.78
2023-01-11T05:35:11.299Z,7.28
2023-01-11T05:37:39.590Z,10.73
2023-01-11T05:40:09.192Z,12.38
2023-01-11T05:42:37.473Z,14.25
2023-01-11T05:45:23.863Z,13.40
2023-01-11T05:50:23.379Z,9.05
2023-01-11T05:52:51.706Z,10.68
2023-01-11T05:55:20.152Z,15.60
2023-01-11T05:57:48.271Z,9.75
2023-01-11T06:00:17.273Z,6.00
2023-01-11T06:02:45.610Z,9.50
2023-01-11T06:05:15.400Z,11.57
2023-01-11T06:07:43.732Z,16.58
2023-01-11T06:10:12.672Z,10.38
2023-01-11T06:12:40.833Z,11.43
2023-01-11T06:15:10.151Z,13.80
2023-01-11T06:17:38.341Z,12.85
2023-01-11T06:20:07.942Z,13.13
2023-01-11T06:22:37.556Z,13.20
2023-01-11T06:25:06.387Z,18.70
2023-01-11T06:27:34.571Z,13.00
2023-01-11T06:30:02.723Z,11.63
2023-01-11T06:32:31.096Z,13.80
2023-01-11T06:34:59.286Z,11.20
2023-01-11T06:37:27.477Z,14.80
2023-01-11T06:39:57.058Z,12.85
2023-01-11T06:42:25.716Z,13.95
2023-01-11T06:44:54.009Z,9.35
2023-01-11T06:47:22.189Z,10.68
2023-01-11T06:49:50.396Z,11.25
2023-01-11T06:52:18.608Z,19.45
2023-01-11T06:54:46.855Z,19.90
2023-01-11T06:57:16.441Z,15.23
2023-01-11T06:59:44.743Z,13.23
2023-01-11T07:02:13.180Z,13.00
2023-01-11T07:04:41.392Z,12.65
2023-01-11T07:07:09.595Z,13.48
2023-01-11T07:09:37.942Z,15.32
2023-01-11T07:12:06.762Z,11.40
2023-01-11T07:14:36.510Z,17.55
2023-01-11T07:17:04.744Z,17.48
2023-01-11T07:19:33.032Z,16.55
2023-01-11T07:22:01.299Z,13.73
2023-01-11T07:24:29.557Z,12.88
2023-01-11T07:26:59.762Z,11.00
2023-01-11T07:29:28.660Z,13.95
2023-01-11T07:31:58.224Z,14.40
2023-01-11T07:34:26.409Z,14.70
2023-01-11T07:36:54.561Z,16.58
2023-01-11T07:39:29.064Z,9.18
2023-01-11T07:42:20.697Z,12.00
2023-01-11T07:44:48.828Z,14.07
2023-01-11T07:47:18.356Z,13.15
2023-01-11T07:49:47.098Z,10.43
2023-01-11T07:52:15.277Z,16.63
2023-01-11T07:54:43.676Z,13.73
2023-01-11T07:57:11.808Z,17.38
2023-01-11T07:59:39.922Z,9.68
2023-01-11T08:02:08.325Z,15.20
2023-01-11T08:04:37.962Z,12.80
2023-01-11T08:07:06.440Z,11.02
2023-01-11T08:09:34.630Z,10.77
2023-01-11T08:12:20.426Z,11.93
2023-01-11T08:14:49.007Z,12.52
2023-01-11T08:17:17.664Z,8.65
2023-01-11T08:19:47.760Z,8.15
2023-01-11T08:22:17.546Z,7.28
2023-01-11T08:24:45.897Z,10.70
2023-01-11T08:27:14.136Z,9.43
2023-01-11T08:29:44.300Z,12.45
2023-01-11T08:32:13.047Z,10.93
2023-01-11T08:34:41.560Z,13.38
2023-01-11T08:37:11.061Z,6.88
2023-01-11T08:39:40.473Z,11.55
2023-01-11T08:42:08.799Z,10.63
2023-01-11T08:44:36.980Z,9.73
2023-01-11T08:47:07.319Z,9.23
2023-01-11T08:49:35.444Z,10.02
2023-01-11T08:52:03.654Z,11.57
2023-01-11T08:54:35.265Z,8.13
2023-01-11T08:57:03.429Z,10.95
2023-01-11T08:59:31.567Z,11.55
2023-01-11T09:01:59.852Z,9.35
2023-01-11T09:04:28.223Z,7.65
2023-01-11T09:06:56.335Z,9.93
2023-01-11T09:09:24.611Z,14.48
2023-01-11T09:11:58.895Z,9.80
2023-01-11T09:14:28.589Z,8.35
2023-01-11T09:16:57.526Z,8.73
2023-01-11T09:19:26.089Z,9.35
2023-01-11T09:21:57.421Z,9.93
2023-01-11T09:24:25.570Z,9.13
2023-01-11T09:26:55.147Z,10.60
2023-01-11T09:29:23.557Z,8.43
2023-01-11T09:31:51.788Z,9.05
2023-01-11T09:34:21.169Z,10.88
2023-01-11T09:36:49.844Z,8.68
2023-01-11T09:39:20.596Z,10.65
2023-01-11T09:42:15.317Z,11.15
2023-01-11T09:44:51.119Z,10.60
2023-01-11T09:47:29.080Z,9.85
2023-01-11T09:50:01.252Z,10.65
2023-01-11T09:52:33.267Z,10.02
2023-01-11T09:55:02.472Z,12.52
2023-01-11T09:57:44.754Z,8.65
2023-01-11T10:00:22.587Z,11.05
2023-01-11T10:03:06.594Z,11.30
2023-01-11T10:05:54.006Z,11.98
2023-01-11T10:18:22.983Z,9.07
2023-01-11T10:18:27.726Z,13.23
2023-01-11T10:20:35.316Z,9.27
2023-01-11T10:23:08.435Z,11.25
2023-01-11T10:25:44.720Z,8.27
2023-01-11T10:28:23.075Z,8.85
2023-01-11T10:31:08.295Z,8.40
2023-01-11T10:33:52.367Z,10.55
2023-01-11T10:36:51.780Z,12.35
2023-01-11T10:39:46.593Z,10.30
2023-01-11T10:42:21.754Z,8.45
2023-01-11T10:45:00.225Z,9.90
2023-01-11T10:47:36.549Z,7.93
2023-01-11T10:50:08.893Z,9.90
2023-01-11T10:52:41.682Z,10.32
2023-01-11T10:55:15.443Z,9.18
2023-01-11T10:58:01.663Z,9.70
2023-01-11T11:00:41.352Z,11.55
2023-01-11T11:03:37.782Z,8.88
2023-01-11T11:06:13.208Z,7.75
2023-01-11T11:08:48.452Z,11.20
2023-01-11T11:11:21.725Z,8.95
2023-01-11T11:13:56.908Z,6.90
2023-01-11T11:16:39.803Z,11.77
2023-01-11T11:19:13.661Z,7.80
2023-01-11T11:21:43.925Z,5.72
2023-01-11T11:24:20.848Z,7.47
2023-01-11T11:26:55.423Z,8.55
2023-01-11T11:29:30.659Z,8.40
2023-01-11T11:32:01.521Z,12.48
2023-01-11T11:34:31.224Z,9.32
2023-01-11T11:37:01.899Z,12.52
2023-01-11T11:39:32.116Z,9.85
2023-01-11T11:42:07.008Z,7.53
2023-01-11T11:44:35.534Z,11.32
2023-01-11T11:47:06.081Z,9.40
2023-01-11T11:49:38.400Z,10.25
2023-01-11T11:52:08.402Z,8.68
2023-01-11T11:54:41.554Z,9.55
2023-01-11T11:57:21.870Z,10.25
2023-01-11T11:59:54.079Z,12.77
2023-01-11T12:02:29.666Z,8.32
2023-01-11T12:05:00.973Z,9.40
2023-01-11T12:07:34.439Z,8.85
2023-01-11T12:10:14.578Z,10.00
2023-01-11T12:12:52.330Z,12.13
2023-01-11T12:15:23.495Z,10.13
2023-01-11T12:17:51.727Z,11.38
2023-01-11T12:20:33.997Z,8.18
2023-01-11T12:23:26.715Z,9.77
2023-01-11T12:26:21.363Z,8.48
2023-01-11T12:29:23.462Z,7.28
2023-01-11T12:32:03.573Z,9.23
2023-01-11T12:34:46.170Z,10.05
2023-01-11T12:37:27.133Z,8.70
2023-01-11T12:40:04.792Z,9.27
2023-01-11T12:42:50.794Z,6.90
2023-01-11T12:45:28.562Z,8.77
2023-01-11T12:48:28.375Z,8.70
2023-01-11T12:51:10.501Z,8.75
2023-01-11T12:53:53.955Z,10.35
2023-01-11T12:56:37.181Z,10.18
2023-01-11T12:59:16.948Z,11.30
2023-01-11T13:01:54.056Z,11.80
2023-01-11T13:04:52.191Z,9.23
2023-01-11T13:07:32.561Z,10.93
2023-01-11T13:10:12.791Z,9.57
2023-01-11T13:12:47.161Z,13.70
2023-01-11T13:15:28.259Z,8.70
2023-01-11T13:18:02.267Z,7.97
2023-01-11T13:20:58.534Z,10.93
2023-01-11T13:23:35.944Z,9.05
2023-01-11T13:26:17.403Z,10.00
2023-01-11T13:28:50.099Z,9.68
2023-01-11T13:31:19.900Z,10.15
2023-01-11T13:33:53.978Z,11.20
2023-01-11T13:36:26.916Z,10.63
2023-01-11T13:38:59.962Z,12.30
2023-01-11T13:41:34.104Z,10.90
2023-01-11T13:44:07.237Z,12.82
2023-01-11T13:46:48.667Z,10.73
2023-01-11T13:49:35.795Z,10.10
2023-01-11T13:52:11.339Z,9.38
2023-01-11T13:54:46.984Z,10.80
2023-01-11T13:57:25.569Z,10.38
2023-01-11T13:59:59.097Z,11.23
2023-01-11T14:02:38.325Z,7.78
2023-01-11T14:05:15.941Z,9.30
2023-01-11T14:08:00.878Z,6.60
2023-01-11T14:10:47.115Z,11.68
2023-01-11T14:14:01.467Z,10.25
2023-01-11T14:16:37.641Z,10.00
2023-01-11T14:19:14.184Z,13.73
2023-01-11T14:21:55.759Z,9.27
2023-01-11T14:24:24.741Z,15.80
2023-01-11T14:27:12.160Z,14.52
2023-01-11T14:30:05.349Z,14.77
2023-01-11T14:33:01.767Z,29.52
2023-01-11T14:36:05.115Z,21.23
2023-01-11T14:39:09.033Z,25.52
2023-01-11T14:42:09.404Z,22.77
2023-01-11T14:44:57.286Z,28.38
2023-01-11T14:47:45.542Z,31.02
2023-01-11T14:50:28.979Z,31.98
2023-01-11T14:53:00.415Z,48.67
2023-01-11T14:55:31.678Z,43.60
2023-01-11T14:58:18.717Z,42.33
2023-01-11T15:01:11.921Z,37.47
2023-01-11T15:03:49.614Z,62.83
2023-01-11T15:06:21.555Z,52.25
2023-01-11T15:08:53.613Z,36.95
2023-01-11T15:11:34.926Z,38.50
2023-01-11T15:14:08.464Z,48.90
2023-01-11T15:16:57.382Z,51.30
2023-01-11T15:19:34.084Z,39.38
2023-01-11T15:22:04.782Z,22.30
2023-01-11T15:24:35.267Z,21.65
2023-01-11T15:27:04.053Z,35.35
2023-01-11T15:29:38.894Z,37.28
2023-01-11T15:32:18.827Z,36.10
2023-01-11T15:34:49.283Z,73.10
2023-01-11T15:37:36.261Z,107.78
2023-01-11T15:40:16.527Z,81.10
2023-01-11T15:43:10.192Z,86.25
2023-01-11T15:46:29.310Z,69.68
2023-01-11T15:49:30.670Z,72.90
2023-01-11T15:52:31.616Z,41.78
2023-01-11T15:55:18.863Z,45.42
2023-01-11T15:58:27.606Z,54.05
2023-01-11T16:01:23.688Z,66.85
2023-01-11T16:04:18.230Z,41.53
2023-01-11T16:06:53.095Z,38.72
2023-01-11T16:09:52.684Z,37.22
2023-01-11T16:12:39.460Z,32.92
2023-01-11T16:15:24.235Z,36.17
2023-01-11T16:17:53.061Z,27.35
2023-01-11T16:20:28.076Z,31.08
2023-01-11T16:22:59.437Z,33.15
2023-01-11T16:25:31.781Z,34.50
2023-01-11T16:28:01.664Z,31.25
2023-01-11T16:30:30.453Z,31.67
2023-01-11T16:33:21.547Z,34.33
2023-01-11T16:35:51.611Z,33.42
2023-01-11T16:38:23.206Z,42.63
2023-01-11T16:40:54.080Z,38.72
2023-01-11T16:43:28.732Z,38.88
2023-01-11T16:45:59.033Z,37.75
2023-01-11T16:48:28.839Z,42.40
2023-01-11T16:51:03.852Z,41.40
2023-01-11T16:53:34.433Z,57.87
2023-01-11T16:56:06.410Z,69.38
2023-01-11T16:58:36.392Z,74.57
2023-01-11T17:01:06.766Z,72.10
2023-01-11T17:03:36.784Z,58.10
2023-01-11T17:06:19.764Z,69.93
2023-01-11T17:08:50.122Z,75.32
2023-01-11T17:11:26.383Z,67.38
2023-01-11T17:14:21.598Z,71.93
2023-01-11T17:16:52.181Z,101.07
2023-01-11T17:19:22.424Z,135.60
2023-01-11T17:21:54.820Z,140.73
2023-01-11T17:24:30.115Z,162.80
2023-01-11T17:27:02.204Z,186.35
2023-01-11T17:29:32.925Z,179.43
2023-01-11T17:32:03.229Z,186.07
2023-01-11T17:34:34.367Z,175.07
2023-01-11T17:37:10.844Z,170.53
2023-01-11T17:39:43.087Z,156.52
2023-01-11T17:42:31.691Z,147.35
2023-01-11T17:45:18.571Z,135.07
2023-01-11T17:47:50.307Z,135.35
2023-01-11T17:50:25.963Z,106.82
2023-01-11T17:53:05.420Z,107.03
2023-01-11T17:55:34.378Z,142.98
2023-01-11T17:58:18.089Z,122.32
2023-01-11T18:01:18.898Z,137.05
2023-01-11T18:03:48.726Z,155.30
2023-01-11T18:06:24.558Z,90.90
2023-01-11T18:08:55.917Z,71.80
2023-01-11T18:11:29.110Z,64.75
2023-01-11T18:14:00.293Z,62.38
2023-01-11T18:16:28.740Z,67.85
2023-01-11T18:18:57.705Z,61.25
2023-01-11T18:21:52.238Z,54.53
2023-01-11T18:24:36.197Z,46.83
2023-01-11T18:27:27.607Z,58.65
2023-01-11T18:29:57.564Z,54.13
2023-01-11T18:32:29.182Z,59.97
2023-01-11T18:35:00.144Z,61.55
2023-01-11T18:37:28.658Z,84.38
2023-01-11T18:40:01.414Z,99.95
2023-01-11T18:42:32.758Z,109.65
2023-01-11T18:45:01.100Z,122.22
2023-01-11T18:47:30.644Z,106.60
2023-01-11T18:49:59.790Z,113.03
2023-01-11T18:52:29.660Z,119.47
2023-01-11T18:55:00.391Z,123.95
2023-01-11T18:57:29.277Z,106.22
2023-01-11T18:59:58.051Z,56.88
2023-01-11T19:02:28.111Z,56.53
2023-01-11T19:04:58.530Z,51.58
2023-01-11T19:07:30.190Z,45.72
2023-01-11T19:10:00.854Z,44.33
2023-01-11T19:12:30.046Z,48.80
2023-01-11T19:14:59.423Z,68.70
2023-01-11T19:17:28.748Z,82.85
2023-01-11T19:19:58.756Z,98.90
2023-01-11T19:22:27.334Z,105.53
2023-01-11T19:24:58.364Z,114.75
2023-01-11T19:27:30.931Z,119.97
2023-01-11T19:29:59.595Z,120.50
2023-01-11T19:32:29.627Z,137.98
2023-01-11T19:34:59.780Z,167.43
2023-01-11T19:37:30.317Z,173.25
2023-01-11T19:39:59.443Z,173.85
2023-01-11T19:42:29.553Z,170.07
2023-01-11T19:45:00.083Z,178.68
2023-01-11T19:47:30.135Z,176.05
2023-01-11T19:50:00.768Z,158.48
2023-01-11T19:52:29.933Z,162.32
2023-01-11T19:54:58.860Z,174.80
2023-01-11T19:57:28.029Z,149.68
2023-01-11T19:59:58.852Z,137.63
2023-01-11T20:02:28.178Z,133.93
2023-01-11T20:04:57.215Z,145.15
2023-01-11T20:07:26.119Z,128.70
2023-01-11T20:09:54.588Z,163.02
2023-01-11T20:12:23.361Z,156.80
2023-01-11T20:14:54.512Z,123.00
2023-01-11T20:17:25.759Z,125.75
2023-01-11T20:19:55.932Z,122.68
2023-01-11T20:22:25.196Z,126.15
2023-01-11T20:24:56.689Z,140.43
2023-01-11T20:27:25.991Z,123.32
2023-01-11T20:29:54.891Z,117.30
2023-01-11T20:32:40.201Z,107.85
2023-01-11T20:37:39.317Z,128.93
2023-01-11T20:40:09.853Z,125.72
2023-01-11T20:42:38.904Z,164.38
2023-01-11T20:45:08.532Z,197.10
2023-01-11T20:47:39.062Z,208.32
2023-01-11T20:50:08.721Z,222.68
2023-01-11T20:52:37.565Z,213.77
2023-01-11T20:55:08.901Z,227.00
2023-01-11T20:57:37.839Z,130.65
2023-01-11T21:02:39.702Z,123.97
2023-01-11T21:05:09.237Z,159.98
2023-01-11T21:07:37.626Z,144.73
2023-01-11T21:10:06.858Z,78.28
2023-01-11T21:12:35.116Z,49.72
2023-01-11T21:15:03.673Z,46.75
2023-01-11T21:17:31.989Z,50.92
2023-01-11T21:20:01.725Z,46.85
2023-01-11T21:22:29.986Z,52.42
2023-01-11T21:24:58.426Z,61.10
2023-01-11T21:27:26.899Z,45.03
2023-01-11T21:29:55.379Z,40.63
2023-01-11T21:32:23.683Z,47.25
2023-01-11T21:34:51.883Z,46.35
2023-01-11T21:37:24.667Z,47.42
2023-01-11T21:39:53.252Z,39.55
2023-01-11T21:42:21.378Z,48.20
2023-01-11T21:44:49.577Z,42.83
2023-01-11T21:47:19.744Z,40.55
2023-01-11T21:49:47.964Z,73.13
2023-01-11T21:52:16.138Z,80.35
2023-01-11T21:54:45.740Z,104.82
2023-01-11T21:57:13.929Z,106.38
2023-01-11T21:59:42.225Z,108.85
2023-01-11T22:02:11.228Z,133.52
2023-01-11T22:04:39.592Z,125.40
2023-01-11T22:07:07.866Z,131.35
2023-01-11T22:09:36.383Z,135.32
2023-01-11T22:12:06.429Z,130.93
2023-01-11T22:14:35.223Z,132.95
2023-01-11T22:17:04.585Z,135.07
2023-01-11T22:19:32.982Z,123.10
2023-01-11T22:22:01.114Z,110.47
2023-01-11T22:24:29.433Z,117.07
2023-01-11T22:26:57.652Z,121.35
2023-01-11T22:29:29.754Z,105.20
2023-01-11T22:32:01.355Z,106.00
2023-01-11T22:34:29.514Z,117.43
2023-01-11T22:36:57.689Z,125.28
2023-01-11T22:39:25.937Z,123.57
2023-01-11T22:41:54.168Z,120.78
2023-01-11T22:44:22.590Z,93.75
2023-01-11T22:46:52.313Z,108.78
2023-01-11T22:49:20.796Z,110.22
2023-01-11T22:51:49.232Z,98.65
2023-01-11T22:54:17.398Z,96.13
2023-01-11T22:56:45.586Z,84.82
2023-01-11T22:59:13.727Z,77.03
2023-01-11T23:01:42.905Z,67.78
2023-01-11T23:04:14.691Z,63.10
2023-01-11T23:06:43.795Z,58.95
2023-01-11T23:09:15.923Z,52.72
2023-01-11T23:12:02.732Z,70.00
2023-01-11T23:14:33.096Z,66.45
2023-01-11T23:17:02.588Z,61.50
2023-01-11T23:19:33.223Z,57.17
2023-01-11T23:22:01.551Z,53.60
2023-01-11T23:24:29.728Z,54.95
2023-01-11T23:26:58.034Z,55.47
2023-01-11T23:29:26.304Z,61.85
2023-01-11T23:31:54.668Z,44.65
2023-01-11T23:34:22.837Z,45.13
2023-01-11T23:36:53.681Z,41.05
2023-01-11T23:39:23.894Z,36.03
2023-01-11T23:42:09.740Z,39.80
2023-01-11T23:44:37.894Z,41.63
2023-01-11T23:47:24.940Z,37.17
2023-01-11T23:49:55.252Z,33.03
2023-01-11T23:52:27.010Z,34.38
2023-01-11T23:54:55.696Z,49.38
2023-01-11T23:57:25.434Z,46.40
2023-01-11T23:59:53.742Z,42.63
